createdAt,value
2023-10-26T00:01:53.702Z,10.91
2023-10-26T00:04:24.866Z,10.96
2023-10-26T00:06:53.409Z,10.98
2023-10-26T00:09:21.878Z,11.01
2023-10-26T00:11:51.199Z,11.02
2023-10-26T00:14:19.511Z,11.06
2023-10-26T00:16:47.902Z,11.11
2023-10-26T00:19:16.484Z,11.15
2023-10-26T00:21:46.467Z,11.18
2023-10-26T00:24:15.416Z,11.17
2023-10-26T00:26:43.747Z,11.16
2023-10-26T00:29:12.449Z,11.17
2023-10-26T00:31:40.572Z,11.11
2023-10-26T00:34:09.008Z,11.07
2023-10-26T00:36:37.200Z,11.00
2023-10-26T00:39:07.486Z,11.00
2023-10-26T00:41:35.697Z,10.93
2023-10-26T00:44:04.043Z,10.89
2023-10-26T00:46:33.101Z,10.83
2023-10-26T00:49:01.852Z,10.78
2023-10-26T00:51:31.392Z,10.74
2023-10-26T00:54:00.362Z,10.70
2023-10-26T00:56:30.499Z,10.65
2023-10-26T00:58:59.762Z,10.58
2023-10-26T01:01:28.905Z,10.52
2023-10-26T01:03:58.594Z,10.43
2023-10-26T01:06:27.389Z,10.37
2023-10-26T01:08:55.734Z,10.26
2023-10-26T01:11:24.514Z,10.18
2023-10-26T01:13:54.618Z,10.10
2023-10-26T01:16:23.990Z,10.01
2023-10-26T01:18:52.610Z,10.04
2023-10-26T01:21:21.541Z,10.02
2023-10-26T01:23:51.621Z,10.07
2023-10-26T01:26:20.125Z,10.14
2023-10-26T01:28:48.642Z,10.20
2023-10-26T01:31:17.814Z,10.27
2023-10-26T01:33:46.534Z,10.34
2023-10-26T01:36:15.614Z,10.38
2023-10-26T01:38:44.402Z,10.38
2023-10-26T01:41:14.230Z,10.50
2023-10-26T01:43:42.576Z,10.49
2023-10-26T01:46:10.974Z,10.49
2023-10-26T01:48:40.118Z,10.47
2023-10-26T01:51:08.402Z,10.50
2023-10-26T01:53:36.826Z,10.48
2023-10-26T01:56:06.540Z,10.46
2023-10-26T01:58:36.425Z,10.43
2023-10-26T02:01:07.132Z,10.44
2023-10-26T02:03:35.560Z,10.43
2023-10-26T02:06:05.232Z,10.38
2023-10-26T02:08:34.393Z,10.35
2023-10-26T02:11:02.836Z,10.30
2023-10-26T02:13:31.555Z,10.22
2023-10-26T02:16:02.881Z,10.14
2023-10-26T02:18:32.526Z,10.05
2023-10-26T02:21:01.748Z,9.95
2023-10-26T02:23:31.052Z,9.89
2023-10-26T02:25:59.417Z,9.82
2023-10-26T02:28:28.246Z,9.75
2023-10-26T02:30:56.754Z,9.66
2023-10-26T02:33:26.596Z,9.59
2023-10-26T02:35:55.532Z,9.52
2023-10-26T02:38:24.060Z,9.47
2023-10-26T02:40:54.509Z,9.41
2023-10-26T02:43:22.827Z,9.38
2023-10-26T02:46:01.593Z,9.32
2023-10-26T02:48:31.573Z,9.24
2023-10-26T02:51:00.112Z,9.20
2023-10-26T02:53:28.477Z,9.14
2023-10-26T02:55:56.874Z,9.09
2023-10-26T02:58:28.088Z,9.03
2023-10-26T03:00:56.688Z,9.00
2023-10-26T03:03:25.426Z,8.99
2023-10-26T03:05:55.229Z,8.95
2023-10-26T03:08:24.201Z,8.89
2023-10-26T03:10:53.484Z,8.84
2023-10-26T03:13:21.940Z,8.80
2023-10-26T03:15:50.710Z,8.73
2023-10-26T03:18:19.208Z,8.66
2023-10-26T03:20:47.789Z,8.60
2023-10-26T03:23:17.527Z,8.61
2023-10-26T03:25:46.012Z,8.59
2023-10-26T03:28:14.142Z,8.54
2023-10-26T03:30:42.678Z,8.48
2023-10-26T03:33:11.085Z,8.46
2023-10-26T03:35:39.596Z,8.41
2023-10-26T03:38:10.609Z,8.37
2023-10-26T03:40:40.596Z,8.34
2023-10-26T03:43:09.557Z,8.30
2023-10-26T03:45:37.700Z,8.27
2023-10-26T03:48:06.996Z,8.22
2023-10-26T03:50:35.534Z,8.20
2023-10-26T03:53:04.420Z,8.21
2023-10-26T03:55:32.827Z,8.20
2023-10-26T03:58:02.491Z,8.21
2023-10-26T04:00:31.130Z,8.20
2023-10-26T04:02:59.541Z,8.22
2023-10-26T04:05:27.985Z,8.26
2023-10-26T04:07:57.685Z,8.31
2023-10-26T04:10:26.228Z,8.32
2023-10-26T04:12:57.017Z,8.37
2023-10-26T04:15:26.826Z,8.38
2023-10-26T04:17:55.641Z,8.35
2023-10-26T04:20:24.260Z,8.42
2023-10-26T04:22:52.546Z,8.44
2023-10-26T04:25:22.612Z,8.44
2023-10-26T04:27:51.379Z,8.42
2023-10-26T04:30:20.210Z,8.44
2023-10-26T04:32:53.632Z,8.44
2023-10-26T04:35:22.869Z,8.46
2023-10-26T04:37:51.556Z,8.48
2023-10-26T04:40:19.894Z,8.60
2023-10-26T04:42:49.776Z,8.68
2023-10-26T04:45:18.792Z,8.76
2023-10-26T04:47:48.030Z,8.86
2023-10-26T04:50:18.701Z,8.96
2023-10-26T04:52:49.142Z,9.00
2023-10-26T04:55:18.120Z,9.01
2023-10-26T04:57:46.508Z,9.07
2023-10-26T05:00:16.456Z,9.12
2023-10-26T05:02:44.924Z,9.18
2023-10-26T05:05:14.026Z,9.21
2023-10-26T05:07:43.933Z,9.22
2023-10-26T05:10:13.085Z,9.25
2023-10-26T05:12:43.355Z,9.19
2023-10-26T05:15:12.495Z,9.20
2023-10-26T05:17:41.299Z,9.23
2023-10-26T05:20:11.579Z,9.21
2023-10-26T05:22:41.181Z,9.24
2023-10-26T05:25:15.422Z,9.21
2023-10-26T05:27:44.740Z,9.23
2023-10-26T05:30:13.865Z,9.21
2023-10-26T05:32:43.032Z,9.21
2023-10-26T05:35:11.799Z,9.23
2023-10-26T05:37:40.590Z,9.27
2023-10-26T05:40:14.826Z,9.26
2023-10-26T05:42:43.774Z,9.28
2023-10-26T05:45:12.655Z,9.28
2023-10-26T05:47:41.707Z,9.27
2023-10-26T05:50:12.055Z,9.27
2023-10-26T05:52:45.747Z,9.30
2023-10-26T05:55:16.557Z,9.32
2023-10-26T05:57:45.612Z,9.33
2023-10-26T06:00:15.400Z,9.35
2023-10-26T06:02:44.002Z,9.38
2023-10-26T06:05:13.472Z,9.39
2023-10-26T06:07:42.588Z,9.44
2023-10-26T06:10:12.817Z,9.49
2023-10-26T06:12:46.326Z,9.54
2023-10-26T06:15:15.316Z,9.55
2023-10-26T06:17:43.916Z,9.61
2023-10-26T06:20:14.278Z,9.65
2023-10-26T06:22:47.023Z,9.70
2023-10-26T06:25:16.330Z,9.79
2023-10-26T06:27:47.034Z,9.86
2023-10-26T06:30:20.583Z,9.94
2023-10-26T06:32:49.984Z,9.99
2023-10-26T06:35:19.052Z,10.07
2023-10-26T06:37:49.461Z,10.14
2023-10-26T06:40:18.678Z,10.22
2023-10-26T06:42:49.343Z,10.29
2023-10-26T06:45:18.432Z,10.36
2023-10-26T06:47:47.644Z,10.40
2023-10-26T06:50:16.435Z,10.44
2023-10-26T06:52:45.743Z,10.52
2023-10-26T06:55:30.085Z,10.60
2023-10-26T06:58:04.706Z,10.69
2023-10-26T07:00:34.500Z,10.79
2023-10-26T07:03:03.011Z,10.82
2023-10-26T07:05:32.328Z,10.90
2023-10-26T07:08:01.101Z,10.95
2023-10-26T07:10:29.874Z,10.99
2023-10-26T07:12:58.676Z,11.01
2023-10-26T07:15:28.991Z,11.11
2023-10-26T07:17:57.831Z,11.22
2023-10-26T07:20:26.702Z,11.29
2023-10-26T07:22:55.687Z,11.33
2023-10-26T07:25:24.260Z,11.36
2023-10-26T07:27:55.654Z,11.47
2023-10-26T07:30:24.886Z,11.58
2023-10-26T07:32:55.169Z,11.68
2023-10-26T07:35:25.961Z,11.77
2023-10-26T07:38:09.165Z,11.80
2023-10-26T07:40:50.251Z,11.85
2023-10-26T07:43:19.210Z,11.85
2023-10-26T07:45:51.985Z,11.86
2023-10-26T07:48:23.794Z,11.89
2023-10-26T07:50:53.616Z,11.90
2023-10-26T07:53:22.428Z,11.88
2023-10-26T07:55:51.817Z,11.89
2023-10-26T07:58:21.672Z,11.90
2023-10-26T08:00:50.681Z,11.92
2023-10-26T08:03:19.637Z,11.91
2023-10-26T08:05:58.971Z,11.91
2023-10-26T08:08:27.796Z,11.91
2023-10-26T08:10:56.564Z,11.92
2023-10-26T08:13:24.856Z,11.90
2023-10-26T08:16:39.372Z,11.90
2023-10-26T08:18:44.160Z,11.85
2023-10-26T08:21:14.705Z,11.83
2023-10-26T08:23:43.551Z,11.87
2023-10-26T08:26:12.769Z,11.88
2023-10-26T08:28:43.945Z,11.90
2023-10-26T08:31:13.460Z,11.91
2023-10-26T08:33:42.123Z,11.93
2023-10-26T08:36:10.907Z,11.98
2023-10-26T08:38:41.396Z,12.12
2023-10-26T08:41:15.265Z,12.28
2023-10-26T08:43:44.975Z,12.44
2023-10-26T08:46:19.809Z,12.60
2023-10-26T08:48:50.905Z,12.64
2023-10-26T08:51:19.463Z,12.68
2023-10-26T08:53:49.931Z,12.71
2023-10-26T08:56:22.498Z,12.74
2023-10-26T08:58:53.197Z,12.80
2023-10-26T09:01:22.088Z,12.86
2023-10-26T09:03:50.856Z,12.92
2023-10-26T09:06:19.849Z,13.02
2023-10-26T09:09:02.879Z,13.11
2023-10-26T09:11:32.039Z,13.20
2023-10-26T09:14:15.070Z,13.22
2023-10-26T09:16:45.136Z,13.25
2023-10-26T09:19:14.397Z,13.31
2023-10-26T09:21:51.086Z,13.32
2023-10-26T09:24:22.633Z,13.35
2023-10-26T09:26:51.720Z,13.36
2023-10-26T09:29:20.859Z,13.40
2023-10-26T09:31:57.989Z,13.42
2023-10-26T09:34:28.585Z,13.46
2023-10-26T09:37:01.880Z,13.49
2023-10-26T09:39:35.839Z,13.54
2023-10-26T09:42:08.150Z,13.55
2023-10-26T09:44:38.544Z,13.59
2023-10-26T09:47:08.092Z,13.67
2023-10-26T09:49:36.797Z,13.70
2023-10-26T09:52:06.555Z,13.74
2023-10-26T09:54:39.032Z,13.79
2023-10-26T09:57:18.191Z,13.85
2023-10-26T09:59:49.535Z,13.91
2023-10-26T10:02:22.471Z,13.94
2023-10-26T10:04:50.987Z,14.00
2023-10-26T10:07:20.897Z,14.07
2023-10-26T10:10:10.555Z,14.20
2023-10-26T10:12:40.686Z,14.47
2023-10-26T10:18:13.232Z,15.04
2023-10-26T10:20:43.113Z,15.47
2023-10-26T10:23:30.331Z,15.72
2023-10-26T10:26:23.502Z,15.71
2023-10-26T10:28:53.812Z,15.64
2023-10-26T10:31:42.363Z,15.55
2023-10-26T10:34:12.446Z,15.44
2023-10-26T10:37:13.618Z,15.33
2023-10-26T10:40:11.817Z,15.15
2023-10-26T10:42:47.391Z,15.00
2023-10-26T10:45:16.719Z,14.86
2023-10-26T10:47:48.395Z,14.72
2023-10-26T10:50:18.927Z,14.64
2023-10-26T10:52:49.591Z,14.68
2023-10-26T10:55:22.642Z,14.87
2023-10-26T10:58:00.097Z,15.05
2023-10-26T11:00:30.131Z,15.17
2023-10-26T11:03:01.414Z,15.32
2023-10-26T11:05:40.690Z,15.40
2023-10-26T11:08:11.328Z,15.51
2023-10-26T11:10:40.984Z,15.49
2023-10-26T11:13:11.006Z,15.39
2023-10-26T11:15:40.908Z,15.26
2023-10-26T11:18:10.402Z,15.14
2023-10-26T11:20:41.965Z,15.00
2023-10-26T11:23:12.992Z,14.87
2023-10-26T11:25:42.033Z,14.79
2023-10-26T11:28:12.735Z,14.74
2023-10-26T11:30:48.986Z,14.72
2023-10-26T11:33:41.099Z,14.69
2023-10-26T11:36:11.388Z,14.70
2023-10-26T11:38:49.612Z,14.69
2023-10-26T11:41:22.765Z,14.72
2023-10-26T11:43:53.693Z,14.78
2023-10-26T11:46:30.843Z,14.81
2023-10-26T11:48:59.725Z,14.82
2023-10-26T11:51:29.461Z,14.84
2023-10-26T11:54:10.971Z,14.87
2023-10-26T11:56:40.224Z,14.86
2023-10-26T11:59:12.262Z,14.83
2023-10-26T12:01:40.783Z,14.79
2023-10-26T12:04:13.722Z,14.76
2023-10-26T12:06:42.511Z,14.75
2023-10-26T12:09:12.092Z,14.76
2023-10-26T12:11:42.442Z,14.77
2023-10-26T12:14:13.906Z,14.75
2023-10-26T12:16:43.140Z,14.72
2023-10-26T12:19:11.773Z,14.73
2023-10-26T12:21:40.578Z,14.73
2023-10-26T12:24:09.589Z,14.73
2023-10-26T12:26:38.056Z,14.72
2023-10-26T12:29:07.375Z,14.69
2023-10-26T12:31:37.006Z,14.65
2023-10-26T12:34:06.217Z,14.61
2023-10-26T12:36:34.669Z,14.56
2023-10-26T12:39:06.552Z,14.52
2023-10-26T12:41:38.210Z,14.46
2023-10-26T12:44:07.116Z,14.42
2023-10-26T12:46:37.449Z,14.36
2023-10-26T12:49:06.184Z,14.34
2023-10-26T12:51:37.162Z,14.31
2023-10-26T12:54:10.930Z,14.28
2023-10-26T12:56:44.759Z,14.29
2023-10-26T12:59:13.683Z,14.26
2023-10-26T13:01:44.857Z,14.22
2023-10-26T13:04:14.561Z,14.21
2023-10-26T13:06:43.555Z,14.22
2023-10-26T13:09:13.853Z,14.21
2023-10-26T13:11:43.638Z,14.19
2023-10-26T13:14:12.448Z,14.19
2023-10-26T13:16:56.648Z,14.20
2023-10-26T13:19:28.829Z,14.15
2023-10-26T13:21:57.743Z,14.15
2023-10-26T13:24:26.340Z,14.13
2023-10-26T13:26:54.972Z,14.12
2023-10-26T13:29:30.281Z,14.11
2023-10-26T13:31:59.627Z,14.08
2023-10-26T13:34:32.270Z,14.05
2023-10-26T13:37:00.758Z,14.04
2023-10-26T13:39:29.688Z,14.02
2023-10-26T13:41:59.024Z,13.98
2023-10-26T13:44:28.044Z,13.93
2023-10-26T13:46:57.153Z,13.86
2023-10-26T13:49:25.535Z,13.75
2023-10-26T13:51:58.257Z,13.63
2023-10-26T13:54:27.635Z,13.59
2023-10-26T13:56:56.500Z,13.53
2023-10-26T13:59:24.936Z,13.54
2023-10-26T14:01:53.599Z,13.51
2023-10-26T14:04:23.230Z,13.51
2023-10-26T14:06:52.039Z,13.51
2023-10-26T14:09:22.031Z,13.46
2023-10-26T14:11:50.805Z,13.41
2023-10-26T14:14:19.307Z,13.38
2023-10-26T14:16:53.732Z,13.20
2023-10-26T14:19:23.459Z,13.39
2023-10-26T14:22:56.909Z,13.37
2023-10-26T14:26:17.592Z,13.37
2023-10-26T14:28:49.001Z,13.32
2023-10-26T14:31:17.929Z,13.33
2023-10-26T14:33:46.855Z,13.31
2023-10-26T14:36:16.452Z,13.29
2023-10-26T14:38:44.996Z,13.28
2023-10-26T14:41:13.732Z,13.28
2023-10-26T14:43:42.510Z,13.25
2023-10-26T14:46:15.948Z,13.23
2023-10-26T14:48:44.509Z,13.22
2023-10-26T14:51:15.618Z,13.23
2023-10-26T14:53:44.221Z,13.19
2023-10-26T14:56:13.304Z,13.19
2023-10-26T14:58:42.203Z,13.20
2023-10-26T15:01:15.621Z,13.17
2023-10-26T15:03:44.709Z,13.14
2023-10-26T15:06:13.790Z,13.15
2023-10-26T15:08:42.290Z,13.17
2023-10-26T15:11:22.755Z,13.16
2023-10-26T15:13:55.329Z,13.12
2023-10-26T15:16:27.539Z,13.11
2023-10-26T15:18:56.514Z,13.09
2023-10-26T15:21:25.397Z,13.07
2023-10-26T15:23:54.486Z,13.05
2023-10-26T15:26:23.425Z,13.02
2023-10-26T15:28:53.514Z,12.99
2023-10-26T15:31:22.531Z,12.96
2023-10-26T15:33:52.488Z,12.96
2023-10-26T15:36:21.522Z,12.92
2023-10-26T15:38:50.831Z,12.88
2023-10-26T15:41:19.720Z,12.86
2023-10-26T15:43:48.952Z,12.82
2023-10-26T15:46:17.758Z,12.80
2023-10-26T15:49:34.782Z,12.72
2023-10-26T15:51:38.830Z,12.64
2023-10-26T15:54:09.590Z,12.60
2023-10-26T15:56:40.632Z,12.55
2023-10-26T15:59:09.722Z,12.50
2023-10-26T16:01:37.977Z,12.47
2023-10-26T16:04:07.670Z,12.45
2023-10-26T16:06:37.484Z,12.43
2023-10-26T16:09:07.899Z,12.42
2023-10-26T16:11:36.478Z,12.40
2023-10-26T16:14:04.691Z,12.39
2023-10-26T16:16:33.122Z,12.38
2023-10-26T16:19:01.530Z,12.36
2023-10-26T16:21:30.599Z,12.35
2023-10-26T16:24:00.231Z,12.32
2023-10-26T16:26:28.830Z,12.31
2023-10-26T16:28:56.998Z,12.29
2023-10-26T16:31:26.354Z,12.28
2023-10-26T16:33:57.768Z,12.24
2023-10-26T16:36:27.143Z,12.22
2023-10-26T16:38:56.362Z,12.20
2023-10-26T16:41:26.382Z,12.18
2023-10-26T16:43:54.951Z,12.17
2023-10-26T16:46:24.511Z,12.15
2023-10-26T16:48:52.658Z,12.14
2023-10-26T16:51:20.868Z,12.12
2023-10-26T16:53:49.215Z,12.13
2023-10-26T16:56:18.268Z,12.14
2023-10-26T16:58:50.019Z,12.15
2023-10-26T17:01:18.383Z,12.12
2023-10-26T17:03:47.579Z,12.11
2023-10-26T17:06:16.540Z,12.10
2023-10-26T17:08:45.574Z,12.12
2023-10-26T17:11:14.537Z,12.14
2023-10-26T17:13:42.685Z,12.14
2023-10-26T17:16:13.110Z,12.14
2023-10-26T17:18:41.380Z,12.16
2023-10-26T17:21:09.787Z,12.18
2023-10-26T17:23:38.380Z,12.16
2023-10-26T17:26:06.857Z,12.14
2023-10-26T17:28:38.131Z,12.14
2023-10-26T17:31:07.377Z,12.15
2023-10-26T17:33:37.494Z,12.19
2023-10-26T17:36:06.698Z,12.21
2023-10-26T17:38:37.628Z,12.28
2023-10-26T17:41:09.668Z,12.30
2023-10-26T17:43:38.444Z,12.30
2023-10-26T17:46:09.513Z,12.30
2023-10-26T17:48:41.308Z,12.34
2023-10-26T17:51:10.576Z,12.36
2023-10-26T17:53:43.129Z,12.36
2023-10-26T17:56:14.439Z,12.38
2023-10-26T17:58:43.702Z,12.37
2023-10-26T18:01:13.674Z,12.33
2023-10-26T18:03:45.389Z,12.27
2023-10-26T18:06:15.111Z,12.29
2023-10-26T18:08:43.426Z,12.28
2023-10-26T18:11:13.542Z,12.25
2023-10-26T18:13:42.361Z,12.21
2023-10-26T18:16:12.107Z,12.19
2023-10-26T18:18:40.806Z,12.18
2023-10-26T18:21:12.272Z,12.17
2023-10-26T18:23:41.497Z,12.18
2023-10-26T18:26:12.834Z,12.17
2023-10-26T18:28:42.570Z,12.14
2023-10-26T18:31:17.550Z,12.09
2023-10-26T18:33:51.081Z,12.03
2023-10-26T18:36:23.155Z,11.98
2023-10-26T18:38:51.975Z,11.93
2023-10-26T18:41:21.865Z,11.91
2023-10-26T18:43:51.672Z,11.87
2023-10-26T18:46:21.201Z,11.88
2023-10-26T18:48:50.336Z,11.88
2023-10-26T18:51:19.148Z,11.87
2023-10-26T18:53:50.308Z,11.86
2023-10-26T18:56:23.185Z,11.84
2023-10-26T18:58:52.632Z,11.87
2023-10-26T19:01:25.330Z,11.86
2023-10-26T19:06:28.620Z,11.87
2023-10-26T19:09:02.545Z,11.88
2023-10-26T19:11:32.277Z,11.87
2023-10-26T19:14:01.526Z,11.86
2023-10-26T19:16:29.896Z,11.87
2023-10-26T19:18:59.216Z,11.91
2023-10-26T19:21:33.165Z,11.97
2023-10-26T19:24:05.202Z,11.98
2023-10-26T19:26:39.806Z,12.00
2023-10-26T19:29:08.675Z,11.97
2023-10-26T19:31:38.178Z,11.93
2023-10-26T19:34:07.441Z,11.91
2023-10-26T19:36:37.686Z,11.83
2023-10-26T19:39:10.543Z,11.77
2023-10-26T19:41:39.137Z,11.74
2023-10-26T19:44:08.755Z,11.68
2023-10-26T19:46:40.185Z,11.66
2023-10-26T19:49:09.226Z,11.63
2023-10-26T19:51:37.865Z,11.64
2023-10-26T19:54:07.515Z,11.64
2023-10-26T19:56:40.380Z,11.64
2023-10-26T19:59:08.574Z,11.65
2023-10-26T20:01:39.364Z,11.67
2023-10-26T20:04:08.606Z,11.72
2023-10-26T20:06:36.787Z,11.73
2023-10-26T20:09:06.468Z,11.73
2023-10-26T20:11:35.157Z,11.74
2023-10-26T20:14:05.402Z,11.75
2023-10-26T20:16:35.108Z,11.68
2023-10-26T20:19:04.077Z,11.69
2023-10-26T20:21:33.203Z,11.68
2023-10-26T20:24:02.439Z,11.65
2023-10-26T20:26:30.666Z,11.65
2023-10-26T20:29:01.014Z,11.64
2023-10-26T20:31:31.183Z,11.62
2023-10-26T20:34:00.643Z,11.59
2023-10-26T20:36:29.693Z,11.58
2023-10-26T20:39:01.520Z,11.58
2023-10-26T20:41:29.667Z,11.57
2023-10-26T20:44:03.303Z,11.55
2023-10-26T20:46:34.959Z,11.56
2023-10-26T20:49:03.891Z,11.56
2023-10-26T20:51:34.769Z,11.58
2023-10-26T20:54:03.477Z,11.58
2023-10-26T20:56:32.654Z,11.61
2023-10-26T20:59:01.170Z,11.61
2023-10-26T21:01:29.835Z,11.64
2023-10-26T21:04:00.387Z,11.63
2023-10-26T21:06:49.607Z,11.59
2023-10-26T21:09:18.547Z,11.60
2023-10-26T21:11:47.070Z,11.59
2023-10-26T21:14:16.187Z,11.63
2023-10-26T21:16:44.892Z,11.63
2023-10-26T21:19:15.594Z,11.61
2023-10-26T21:21:44.013Z,11.63
2023-10-26T21:24:12.475Z,11.62
2023-10-26T21:26:40.689Z,11.62
2023-10-26T21:29:09.363Z,11.64
2023-10-26T21:31:39.500Z,11.62
2023-10-26T21:34:08.667Z,11.64
2023-10-26T21:36:40.443Z,11.63
2023-10-26T21:39:15.046Z,11.59
2023-10-26T21:41:43.655Z,11.61
2023-10-26T21:44:13.196Z,11.61
2023-10-26T21:46:42.031Z,11.62
2023-10-26T21:49:10.508Z,11.60
2023-10-26T21:51:40.818Z,11.60
2023-10-26T21:54:13.419Z,11.57
2023-10-26T21:56:42.917Z,11.56
2023-10-26T21:59:15.950Z,11.62
2023-10-26T22:01:44.894Z,11.63
2023-10-26T22:04:22.200Z,11.62
2023-10-26T22:06:53.022Z,11.56
2023-10-26T22:09:23.540Z,11.58
2023-10-26T22:11:52.484Z,11.53
2023-10-26T22:14:21.855Z,11.56
2023-10-26T22:16:50.474Z,11.56
2023-10-26T22:19:21.847Z,11.54
2023-10-26T22:21:51.884Z,11.52
2023-10-26T22:24:21.367Z,11.52
2023-10-26T22:26:50.326Z,11.47
2023-10-26T22:29:29.440Z,11.43
2023-10-26T22:31:59.081Z,11.40
2023-10-26T22:34:27.473Z,11.37
2023-10-26T22:36:57.402Z,11.33
2023-10-26T22:39:25.762Z,11.33
2023-10-26T22:41:53.831Z,11.34
2023-10-26T22:44:22.219Z,11.30
2023-10-26T22:46:51.310Z,11.26
2023-10-26T22:49:20.150Z,11.20
2023-10-26T22:51:51.602Z,11.14
2023-10-26T22:54:23.778Z,11.11
2023-10-26T22:56:52.393Z,11.04
2023-10-26T22:59:21.796Z,11.02
2023-10-26T23:01:50.496Z,11.01
2023-10-26T23:04:19.457Z,10.98
2023-10-26T23:06:48.250Z,10.91
2023-10-26T23:09:17.523Z,10.86
2023-10-26T23:11:47.918Z,10.82
2023-10-26T23:14:16.154Z,10.78
2023-10-26T23:16:49.618Z,10.68
2023-10-26T23:19:19.678Z,10.59
2023-10-26T23:21:48.361Z,10.49
2023-10-26T23:24:20.814Z,10.35
2023-10-26T23:26:50.958Z,10.26
2023-10-26T23:29:20.091Z,10.16
2023-10-26T23:31:48.948Z,10.05
2023-10-26T23:34:17.477Z,9.96
2023-10-26T23:36:46.210Z,9.89
2023-10-26T23:39:14.724Z,9.83
2023-10-26T23:41:44.667Z,9.76
2023-10-26T23:44:14.220Z,9.66
2023-10-26T23:46:42.695Z,9.62
2023-10-26T23:49:11.414Z,9.56
2023-10-26T23:51:39.777Z,9.45
2023-10-26T23:54:09.864Z,9.38
2023-10-26T23:56:40.700Z,9.28
2023-10-26T23:59:11.583Z,9.26
